createdAt,value
2022-12-03T00:02:21.759Z,16.05
2022-12-03T00:04:48.355Z,14.87
2022-12-03T00:07:14.850Z,13.93
2022-12-03T00:09:41.282Z,12.45
2022-12-03T00:12:07.680Z,12.57
2022-12-03T00:14:34.149Z,15.77
2022-12-03T00:17:00.589Z,14.63
2022-12-03T00:19:27.013Z,15.00
2022-12-03T00:21:53.904Z,12.43
2022-12-03T00:24:20.336Z,15.15
2022-12-03T00:26:46.745Z,14.15
2022-12-03T00:29:13.219Z,14.40
2022-12-03T00:31:39.694Z,11.50
2022-12-03T00:34:06.117Z,15.07
2022-12-03T00:36:32.554Z,16.08
2022-12-03T00:38:58.976Z,14.50
2022-12-03T00:41:25.391Z,13.73
2022-12-03T00:43:52.850Z,15.00
2022-12-03T00:46:21.986Z,15.73
2022-12-03T00:48:48.514Z,14.43
2022-12-03T00:51:15.082Z,13.52
2022-12-03T00:53:41.532Z,15.33
2022-12-03T00:56:08.371Z,16.33
2022-12-03T00:58:34.886Z,12.90
2022-12-03T01:01:01.391Z,11.75
2022-12-03T01:03:27.964Z,15.65
2022-12-03T01:05:56.490Z,18.33
2022-12-03T01:08:24.342Z,15.68
2022-12-03T01:10:50.759Z,18.63
2022-12-03T01:13:17.244Z,14.65
2022-12-03T01:15:43.733Z,11.20
2022-12-03T01:18:10.208Z,15.50
2022-12-03T01:20:38.502Z,14.15
2022-12-03T01:23:05.218Z,16.15
2022-12-03T01:25:32.890Z,14.35
2022-12-03T01:27:59.365Z,14.82
2022-12-03T01:30:25.804Z,15.93
2022-12-03T01:32:52.238Z,15.60
2022-12-03T01:35:18.809Z,15.82
2022-12-03T01:37:45.212Z,14.95
2022-12-03T01:40:16.177Z,16.20
2022-12-03T01:42:42.833Z,16.53
2022-12-03T01:45:21.504Z,15.30
2022-12-03T01:47:48.078Z,16.13
2022-12-03T01:50:19.897Z,12.00
2022-12-03T01:52:47.386Z,16.98
2022-12-03T01:55:16.790Z,13.60
2022-12-03T01:57:49.748Z,16.48
2022-12-03T02:00:18.747Z,14.00
2022-12-03T02:02:45.622Z,10.82
2022-12-03T02:05:18.987Z,16.05
2022-12-03T02:07:45.562Z,8.80
2022-12-03T02:10:13.641Z,15.98
2022-12-03T02:12:44.268Z,12.35
2022-12-03T02:15:11.130Z,15.30
2022-12-03T02:17:37.742Z,15.15
2022-12-03T02:20:06.094Z,13.27
2022-12-03T02:22:54.405Z,13.52
2022-12-03T02:25:23.515Z,14.23
2022-12-03T02:27:50.518Z,13.90
2022-12-03T02:30:20.321Z,15.30
2022-12-03T02:32:47.803Z,13.43
2022-12-03T02:35:19.803Z,14.45
2022-12-03T02:37:48.222Z,13.80
2022-12-03T02:40:19.029Z,13.93
2022-12-03T02:42:50.469Z,10.40
2022-12-03T02:45:21.500Z,15.53
2022-12-03T02:47:53.361Z,13.43
2022-12-03T02:50:22.310Z,10.88
2022-12-03T02:52:49.330Z,15.93
2022-12-03T02:55:16.573Z,14.88
2022-12-03T02:57:48.099Z,14.37
2022-12-03T03:00:15.575Z,12.00
2022-12-03T03:02:44.667Z,15.63
2022-12-03T03:05:12.560Z,14.68
2022-12-03T03:07:39.683Z,13.43
2022-12-03T03:10:07.777Z,14.13
2022-12-03T03:12:39.284Z,16.65
2022-12-03T03:15:08.165Z,13.70
2022-12-03T03:17:35.078Z,13.07
2022-12-03T03:20:02.529Z,13.50
2022-12-03T03:22:40.186Z,9.83
2022-12-03T03:25:13.121Z,14.68
2022-12-03T03:27:40.893Z,13.77
2022-12-03T03:30:16.061Z,13.82
2022-12-03T03:32:42.799Z,17.10
2022-12-03T03:35:10.214Z,9.57
2022-12-03T03:37:36.740Z,13.55
2022-12-03T03:40:03.407Z,9.70
2022-12-03T03:42:29.857Z,13.88
2022-12-03T03:44:56.440Z,14.10
2022-12-03T03:47:23.826Z,13.00
2022-12-03T03:49:50.865Z,11.90
2022-12-03T03:52:19.038Z,11.00
2022-12-03T03:54:45.850Z,14.18
2022-12-03T03:57:12.534Z,13.48
2022-12-03T03:59:38.961Z,14.20
2022-12-03T04:02:05.386Z,14.45
2022-12-03T04:04:35.751Z,13.52
2022-12-03T04:07:02.635Z,12.40
2022-12-03T04:09:31.654Z,13.80
2022-12-03T04:12:17.539Z,13.67
2022-12-03T04:14:44.002Z,9.52
2022-12-03T04:17:12.999Z,7.65
2022-12-03T04:19:39.447Z,7.97
2022-12-03T04:22:24.333Z,11.48
2022-12-03T04:24:51.185Z,8.03
2022-12-03T04:27:36.280Z,12.93
2022-12-03T04:30:04.529Z,13.18
2022-12-03T04:32:52.437Z,13.25
2022-12-03T04:35:44.393Z,12.15
2022-12-03T04:38:12.210Z,7.43
2022-12-03T04:40:58.899Z,12.38
2022-12-03T04:43:27.413Z,11.05
2022-12-03T04:45:54.696Z,12.65
2022-12-03T04:48:21.194Z,14.05
2022-12-03T04:50:50.609Z,12.80
2022-12-03T04:53:17.028Z,13.63
2022-12-03T04:55:43.470Z,12.40
2022-12-03T04:58:10.123Z,11.95
2022-12-03T05:00:36.618Z,12.50
2022-12-03T05:03:03.259Z,12.40
2022-12-03T05:05:29.751Z,14.45
2022-12-03T05:07:57.295Z,12.98
2022-12-03T05:10:23.820Z,7.50
2022-12-03T05:12:50.240Z,11.48
2022-12-03T05:15:16.739Z,11.63
2022-12-03T05:17:43.205Z,11.63
2022-12-03T05:20:52.930Z,15.13
2022-12-03T05:23:21.678Z,12.20
2022-12-03T05:25:48.309Z,12.43
2022-12-03T05:28:14.778Z,11.43
2022-12-03T05:30:41.581Z,13.50
2022-12-03T05:33:08.097Z,14.20
2022-12-03T05:35:34.521Z,14.00
2022-12-03T05:38:01.275Z,15.07
2022-12-03T05:40:28.043Z,13.33
2022-12-03T05:42:54.550Z,13.70
2022-12-03T05:46:03.425Z,12.65
2022-12-03T05:48:29.893Z,12.90
2022-12-03T05:50:56.371Z,12.52
2022-12-03T05:53:22.917Z,12.13
2022-12-03T05:55:49.331Z,15.45
2022-12-03T05:58:15.750Z,13.88
2022-12-03T06:00:44.949Z,14.30
2022-12-03T06:03:11.624Z,13.82
2022-12-03T06:05:38.305Z,13.47
2022-12-03T06:08:05.056Z,13.18
2022-12-03T06:10:31.583Z,13.45
2022-12-03T06:12:58.003Z,12.07
2022-12-03T06:15:24.538Z,15.02
2022-12-03T06:17:51.602Z,16.47
2022-12-03T06:20:19.772Z,17.00
2022-12-03T06:22:46.777Z,15.13
2022-12-03T06:25:14.358Z,15.35
2022-12-03T06:27:40.754Z,9.20
2022-12-03T06:30:08.959Z,13.93
2022-12-03T06:32:35.534Z,13.90
2022-12-03T06:35:02.202Z,13.48
2022-12-03T06:37:28.869Z,13.95
2022-12-03T06:39:55.302Z,13.07
2022-12-03T06:42:21.919Z,13.10
2022-12-03T06:44:48.545Z,14.10
2022-12-03T06:47:16.599Z,12.68
2022-12-03T06:49:43.057Z,8.35
2022-12-03T06:52:09.547Z,14.57
2022-12-03T06:54:36.003Z,13.27
2022-12-03T06:57:02.599Z,12.75
2022-12-03T06:59:35.251Z,12.63
2022-12-03T07:02:01.832Z,13.30
2022-12-03T07:04:28.266Z,12.18
2022-12-03T07:06:54.731Z,13.23
2022-12-03T07:09:59.189Z,15.45
2022-12-03T07:13:03.339Z,13.55
2022-12-03T07:15:29.847Z,13.25
2022-12-03T07:17:56.262Z,14.05
2022-12-03T07:20:22.850Z,13.73
2022-12-03T07:22:49.316Z,14.07
2022-12-03T07:25:19.652Z,14.23
2022-12-03T07:27:49.467Z,14.60
2022-12-03T07:30:16.385Z,14.88
2022-12-03T07:32:42.833Z,14.10
2022-12-03T07:35:09.680Z,13.75
2022-12-03T07:37:36.426Z,14.82
2022-12-03T07:40:03.571Z,16.27
2022-12-03T07:42:30.260Z,14.93
2022-12-03T07:44:56.808Z,13.90
2022-12-03T07:47:23.311Z,13.25
2022-12-03T07:49:49.847Z,13.93
2022-12-03T07:52:16.355Z,14.25
2022-12-03T07:54:43.659Z,15.23
2022-12-03T07:57:10.106Z,16.63
2022-12-03T07:59:36.727Z,16.25
2022-12-03T08:02:03.337Z,14.05
2022-12-03T08:04:54.496Z,15.52
2022-12-03T08:07:21.433Z,15.38
2022-12-03T08:09:47.954Z,14.67
2022-12-03T08:13:17.010Z,14.80
2022-12-03T08:15:44.007Z,13.55
2022-12-03T08:22:01.595Z,14.70
2022-12-03T08:24:29.253Z,15.10
2022-12-03T08:26:57.054Z,15.65
2022-12-03T08:29:24.915Z,15.73
2022-12-03T08:31:55.186Z,10.95
2022-12-03T08:34:23.957Z,15.15
2022-12-03T08:36:59.657Z,14.70
2022-12-03T08:39:30.256Z,14.77
2022-12-03T08:42:21.143Z,15.60
2022-12-03T08:44:47.710Z,14.85
2022-12-03T08:47:19.296Z,14.07
2022-12-03T08:49:51.729Z,15.87
2022-12-03T08:52:47.356Z,15.30
2022-12-03T08:55:35.630Z,16.90
2022-12-03T08:58:18.331Z,14.80
2022-12-03T09:00:52.057Z,15.57
2022-12-03T09:03:19.211Z,14.50
2022-12-03T09:05:45.640Z,13.98
2022-12-03T09:08:12.280Z,15.50
2022-12-03T09:10:38.775Z,15.73
2022-12-03T09:13:25.759Z,15.73
2022-12-03T09:15:53.477Z,13.70
2022-12-03T09:18:19.906Z,14.60
2022-12-03T09:20:46.347Z,16.92
2022-12-03T09:23:12.769Z,15.25
2022-12-03T09:25:39.215Z,14.30
2022-12-03T09:28:05.680Z,16.33
2022-12-03T09:30:32.159Z,17.08
2022-12-03T09:33:00.067Z,16.80
2022-12-03T09:35:27.559Z,13.30
2022-12-03T09:37:54.087Z,15.52
2022-12-03T09:40:21.269Z,15.57
2022-12-03T09:42:48.270Z,15.23
2022-12-03T09:45:15.855Z,14.88
2022-12-03T09:47:46.371Z,17.15
2022-12-03T09:50:16.678Z,15.95
2022-12-03T09:52:45.106Z,15.27
2022-12-03T09:55:15.796Z,14.38
2022-12-03T09:57:42.365Z,17.25
2022-12-03T10:00:26.667Z,14.90
2022-12-03T10:02:55.434Z,15.85
2022-12-03T10:05:22.767Z,16.03
2022-12-03T10:07:51.317Z,15.88
2022-12-03T10:10:21.641Z,15.95
2022-12-03T10:12:48.613Z,15.43
2022-12-03T10:15:17.542Z,16.17
2022-12-03T10:17:46.169Z,17.97
2022-12-03T10:20:14.199Z,15.23
2022-12-03T10:22:41.466Z,18.25
2022-12-03T10:25:11.767Z,17.23
2022-12-03T10:27:58.770Z,17.73
2022-12-03T10:30:30.795Z,16.43
2022-12-03T10:32:58.506Z,16.77
2022-12-03T10:35:36.788Z,16.90
2022-12-03T10:38:04.320Z,17.52
2022-12-03T10:40:36.172Z,17.42
2022-12-03T10:43:26.298Z,19.23
2022-12-03T10:46:04.199Z,17.27
2022-12-03T10:48:33.194Z,17.33
2022-12-03T10:51:13.739Z,18.40
2022-12-03T10:53:41.128Z,16.20
2022-12-03T10:56:15.451Z,16.23
2022-12-03T10:58:42.101Z,19.48
2022-12-03T11:01:23.009Z,18.13
2022-12-03T11:03:50.120Z,19.15
2022-12-03T11:06:18.911Z,20.73
2022-12-03T11:08:51.584Z,18.33
2022-12-03T11:11:23.909Z,17.20
2022-12-03T11:14:01.274Z,18.55
2022-12-03T11:16:42.143Z,19.25
2022-12-03T11:19:20.947Z,17.20
2022-12-03T11:22:05.814Z,18.00
2022-12-03T11:24:34.137Z,19.40
2022-12-03T11:27:00.504Z,19.35
2022-12-03T11:29:55.679Z,18.00
2022-12-03T11:32:43.707Z,18.95
2022-12-03T11:35:26.985Z,18.43
2022-12-03T11:38:37.990Z,18.50
2022-12-03T11:41:21.106Z,19.63
2022-12-03T11:44:00.951Z,18.88
2022-12-03T11:46:46.450Z,20.35
2022-12-03T11:49:27.677Z,20.30
2022-12-03T11:51:54.270Z,17.77
2022-12-03T11:54:25.862Z,19.15
2022-12-03T11:56:53.223Z,17.85
2022-12-03T11:59:20.218Z,17.55
2022-12-03T12:01:46.922Z,20.50
2022-12-03T12:04:32.777Z,17.05
2022-12-03T12:06:59.980Z,16.35
2022-12-03T12:09:58.950Z,18.55
2022-12-03T12:12:31.075Z,18.23
2022-12-03T12:14:58.855Z,16.47
2022-12-03T12:17:41.299Z,17.08
2022-12-03T12:20:27.475Z,16.83
2022-12-03T12:22:55.254Z,17.60
2022-12-03T12:25:53.910Z,16.67
2022-12-03T12:28:20.903Z,16.97
2022-12-03T12:30:48.477Z,18.20
2022-12-03T12:33:23.071Z,17.73
2022-12-03T12:35:49.659Z,19.42
2022-12-03T12:38:20.905Z,17.95
2022-12-03T12:40:49.382Z,18.20
2022-12-03T12:43:25.001Z,16.58
2022-12-03T12:45:56.578Z,16.55
2022-12-03T12:48:35.986Z,15.85
2022-12-03T12:51:18.758Z,17.83
2022-12-03T12:53:47.665Z,16.13
2022-12-03T12:56:33.624Z,16.85
2022-12-03T12:59:25.905Z,17.55
2022-12-03T13:01:52.636Z,17.75
2022-12-03T13:04:23.702Z,17.33
2022-12-03T13:06:54.969Z,16.87
2022-12-03T13:09:23.922Z,19.73
2022-12-03T13:12:10.154Z,16.80
2022-12-03T13:14:37.328Z,16.95
2022-12-03T13:17:24.715Z,17.63
2022-12-03T13:20:00.496Z,15.63
2022-12-03T13:22:33.180Z,16.05
2022-12-03T13:25:27.956Z,16.48
2022-12-03T13:28:23.847Z,15.18
2022-12-03T13:30:52.964Z,17.63
2022-12-03T13:33:26.817Z,16.80
2022-12-03T13:35:56.926Z,16.75
2022-12-03T13:38:25.073Z,17.45
2022-12-03T13:40:59.468Z,16.67
2022-12-03T13:43:31.341Z,17.20
2022-12-03T13:45:58.202Z,17.47
2022-12-03T13:48:31.560Z,16.63
2022-12-03T13:51:01.982Z,17.73
2022-12-03T13:53:37.479Z,17.75
2022-12-03T13:56:27.466Z,16.75
2022-12-03T13:58:54.923Z,15.43
2022-12-03T14:01:21.677Z,16.35
2022-12-03T14:03:48.309Z,12.52
2022-12-03T14:06:14.793Z,8.13
2022-12-03T14:08:41.352Z,15.13
2022-12-03T14:11:07.818Z,14.63
2022-12-03T14:13:34.282Z,17.00
2022-12-03T14:16:03.498Z,16.73
2022-12-03T14:18:31.414Z,16.05
2022-12-03T14:20:57.905Z,17.05
2022-12-03T14:23:24.393Z,17.17
2022-12-03T14:25:50.842Z,14.10
2022-12-03T14:28:17.326Z,17.23
2022-12-03T14:30:43.809Z,16.67
2022-12-03T14:33:10.278Z,17.27
2022-12-03T14:35:36.726Z,14.27
2022-12-03T14:38:04.254Z,17.65
2022-12-03T14:40:33.081Z,16.88
2022-12-03T14:42:59.530Z,18.50
2022-12-03T14:45:28.494Z,19.65
2022-12-03T14:47:55.017Z,16.67
2022-12-03T14:50:21.490Z,16.40
2022-12-03T14:52:47.951Z,18.58
2022-12-03T14:55:14.471Z,17.25
2022-12-03T14:57:41.389Z,18.60
2022-12-03T15:00:14.610Z,15.57
2022-12-03T15:02:41.238Z,18.85
2022-12-03T15:05:07.997Z,18.80
2022-12-03T15:07:34.663Z,14.77
2022-12-03T15:10:01.139Z,17.52
2022-12-03T15:12:27.763Z,13.77
2022-12-03T15:14:54.646Z,17.38
2022-12-03T15:17:31.035Z,18.20
2022-12-03T15:20:01.680Z,15.32
2022-12-03T15:22:28.138Z,19.58
2022-12-03T15:24:54.659Z,21.37
2022-12-03T15:27:21.141Z,18.02
2022-12-03T15:29:47.630Z,19.77
2022-12-03T15:32:16.589Z,16.70
2022-12-03T15:34:50.293Z,20.45
2022-12-03T15:37:17.249Z,19.03
2022-12-03T15:39:52.812Z,20.60
2022-12-03T15:42:22.100Z,17.10
2022-12-03T15:44:48.688Z,19.48
2022-12-03T15:47:15.112Z,21.15
2022-12-03T15:49:41.639Z,19.67
2022-12-03T15:52:18.648Z,20.38
2022-12-03T15:54:46.372Z,8.13
2022-12-03T15:57:14.322Z,20.38
2022-12-03T15:59:46.157Z,19.42
2022-12-03T16:02:12.665Z,19.00
2022-12-03T16:04:39.155Z,17.02
2022-12-03T16:07:05.664Z,20.33
2022-12-03T16:09:34.368Z,18.63
2022-12-03T16:12:00.807Z,20.30
2022-12-03T16:14:28.712Z,18.93
2022-12-03T16:16:55.279Z,19.92
2022-12-03T16:19:21.719Z,19.70
2022-12-03T16:21:48.172Z,20.48
2022-12-03T16:24:14.686Z,23.40
2022-12-03T16:26:41.116Z,21.23
2022-12-03T16:29:07.546Z,15.10
2022-12-03T16:31:34.042Z,19.83
2022-12-03T16:34:00.525Z,20.30
2022-12-03T16:36:29.959Z,15.32
2022-12-03T16:38:56.405Z,19.90
2022-12-03T16:41:25.140Z,20.60
2022-12-03T16:43:51.780Z,20.58
2022-12-03T16:46:20.674Z,20.35
2022-12-03T16:48:54.127Z,20.20
2022-12-03T16:51:20.893Z,17.73
2022-12-03T16:53:47.949Z,22.02
2022-12-03T16:56:14.846Z,18.38
2022-12-03T16:58:41.517Z,20.15
2022-12-03T17:01:08.098Z,20.35
2022-12-03T17:03:36.877Z,20.73
2022-12-03T17:06:04.242Z,20.77
2022-12-03T17:08:31.139Z,21.48
2022-12-03T17:10:57.966Z,21.10
2022-12-03T17:13:24.477Z,14.55
2022-12-03T17:15:51.371Z,21.70
2022-12-03T17:18:18.019Z,21.90
2022-12-03T17:20:44.461Z,20.63
2022-12-03T17:23:11.851Z,21.67
2022-12-03T17:25:38.302Z,19.55
2022-12-03T17:28:05.019Z,20.57
2022-12-03T17:30:31.471Z,18.95
2022-12-03T17:32:57.938Z,21.83
2022-12-03T17:35:25.055Z,18.48
2022-12-03T17:37:52.820Z,14.13
2022-12-03T17:40:21.421Z,17.63
2022-12-03T17:42:48.313Z,22.00
2022-12-03T17:45:14.938Z,21.67
2022-12-03T17:47:43.811Z,21.50
2022-12-03T17:50:12.873Z,19.25
2022-12-03T17:52:40.843Z,19.93
2022-12-03T17:55:15.712Z,20.92
2022-12-03T17:57:44.633Z,22.73
2022-12-03T18:00:11.793Z,19.25
2022-12-03T18:02:38.263Z,22.83
2022-12-03T18:05:04.904Z,21.20
2022-12-03T18:07:31.380Z,20.40
2022-12-03T18:10:00.529Z,19.73
2022-12-03T18:12:27.161Z,23.02
2022-12-03T18:14:53.695Z,20.80
2022-12-03T18:17:20.190Z,22.60
2022-12-03T18:19:46.630Z,19.65
2022-12-03T18:22:16.040Z,21.80
2022-12-03T18:24:44.937Z,21.73
2022-12-03T18:27:12.602Z,22.23
2022-12-03T18:29:39.161Z,22.40
2022-12-03T18:32:27.008Z,21.75
2022-12-03T18:34:55.250Z,21.55
2022-12-03T18:37:21.741Z,21.23
2022-12-03T18:40:20.209Z,20.05
2022-12-03T18:42:47.470Z,19.40
2022-12-03T18:45:14.893Z,22.02
2022-12-03T18:47:41.449Z,19.83
2022-12-03T18:50:15.647Z,18.30
2022-12-03T18:52:42.245Z,16.58
2022-12-03T18:55:10.840Z,20.77
2022-12-03T18:57:43.397Z,18.58
2022-12-03T19:00:14.092Z,19.50
2022-12-03T19:05:27.286Z,12.90
2022-12-03T19:07:57.937Z,21.20
2022-12-03T19:10:24.728Z,22.27
2022-12-03T19:12:51.444Z,20.05
2022-12-03T19:15:18.019Z,21.30
2022-12-03T19:17:50.614Z,20.88
2022-12-03T19:20:17.255Z,20.70
2022-12-03T19:22:44.821Z,21.95
2022-12-03T19:25:11.332Z,22.85
2022-12-03T19:27:37.825Z,23.40
2022-12-03T19:30:05.513Z,22.23
2022-12-03T19:32:35.715Z,22.30
2022-12-03T19:35:05.039Z,19.83
2022-12-03T19:37:33.622Z,22.33
2022-12-03T19:40:00.967Z,23.27
2022-12-03T19:42:27.631Z,23.75
2022-12-03T19:44:54.180Z,14.17
2022-12-03T19:47:24.791Z,22.30
2022-12-03T19:49:53.005Z,22.75
2022-12-03T19:52:20.098Z,22.08
2022-12-03T19:54:47.332Z,24.08
2022-12-03T19:59:54.941Z,21.95
2022-12-03T20:02:23.238Z,24.30
2022-12-03T20:04:50.059Z,23.40
2022-12-03T20:07:16.511Z,25.05
2022-12-03T20:09:43.029Z,24.20
2022-12-03T20:12:09.497Z,23.65
2022-12-03T20:14:35.964Z,24.73
2022-12-03T20:17:02.504Z,27.27
2022-12-03T20:19:31.605Z,29.10
2022-12-03T20:22:02.574Z,23.87
2022-12-03T20:24:29.562Z,28.30
2022-12-03T20:26:59.959Z,26.55
2022-12-03T20:29:26.468Z,26.05
2022-12-03T20:31:53.071Z,22.70
2022-12-03T20:34:19.652Z,22.40
2022-12-03T20:36:46.126Z,22.73
2022-12-03T20:39:12.655Z,24.63
2022-12-03T20:41:39.063Z,23.50
2022-12-03T20:44:08.039Z,22.48
2022-12-03T20:46:34.680Z,23.43
2022-12-03T20:49:01.208Z,23.38
2022-12-03T20:51:29.934Z,24.35
2022-12-03T20:53:57.603Z,23.25
2022-12-03T20:56:31.153Z,22.08
2022-12-03T20:59:07.536Z,23.13
2022-12-03T21:01:35.764Z,21.65
2022-12-03T21:04:04.137Z,22.13
2022-12-03T21:06:31.343Z,20.10
2022-12-03T21:08:59.048Z,21.67
2022-12-03T21:11:29.368Z,22.47
2022-12-03T21:13:55.962Z,22.45
2022-12-03T21:16:51.899Z,24.85
2022-12-03T21:19:12.399Z,22.77
2022-12-03T21:21:38.857Z,22.92
2022-12-03T21:24:05.542Z,19.83
2022-12-03T21:26:33.607Z,19.50
2022-12-03T21:29:00.040Z,22.85
2022-12-03T21:31:27.257Z,23.20
2022-12-03T21:33:54.764Z,22.10
2022-12-03T21:36:21.523Z,21.63
2022-12-03T21:38:48.266Z,20.40
2022-12-03T21:41:14.726Z,22.23
2022-12-03T21:43:41.742Z,23.80
2022-12-03T21:47:11.509Z,22.50
2022-12-03T21:48:57.050Z,22.93
2022-12-03T21:51:23.549Z,22.92
2022-12-03T21:53:50.023Z,22.38
2022-12-03T21:56:19.428Z,21.88
2022-12-03T21:58:46.287Z,23.65
2022-12-03T22:01:23.765Z,23.13
2022-12-03T22:03:50.803Z,22.02
2022-12-03T22:06:17.854Z,22.60
2022-12-03T22:08:44.504Z,22.48
2022-12-03T22:11:19.060Z,23.05
2022-12-03T22:13:45.656Z,23.23
2022-12-03T22:16:17.600Z,22.50
2022-12-03T22:18:44.301Z,22.10
2022-12-03T22:21:13.325Z,22.48
2022-12-03T22:23:40.297Z,24.48
2022-12-03T22:26:09.415Z,21.63
2022-12-03T22:28:37.339Z,23.90
2022-12-03T22:31:08.019Z,23.35
2022-12-03T22:33:34.785Z,21.77
2022-12-03T22:36:22.118Z,23.80
2022-12-03T22:38:49.626Z,24.07
2022-12-03T22:41:16.959Z,24.63
2022-12-03T22:43:43.393Z,24.15
2022-12-03T22:46:13.354Z,24.15
2022-12-03T22:48:43.800Z,23.85
2022-12-03T22:51:16.083Z,22.50
2022-12-03T22:53:42.500Z,21.27
2022-12-03T22:56:09.050Z,23.23
2022-12-03T22:58:37.313Z,25.05
2022-12-03T23:01:03.810Z,24.02
2022-12-03T23:03:30.700Z,23.30
2022-12-03T23:05:57.187Z,20.35
2022-12-03T23:08:24.771Z,24.73
2022-12-03T23:10:52.237Z,23.40
2022-12-03T23:13:19.554Z,22.33
2022-12-03T23:15:47.510Z,23.70
2022-12-03T23:18:14.360Z,22.60
2022-12-03T23:20:45.077Z,22.23
2022-12-03T23:23:11.881Z,22.00
2022-12-03T23:25:38.396Z,23.40
2022-12-03T23:28:05.565Z,22.80
2022-12-03T23:30:35.962Z,22.23
2022-12-03T23:33:02.851Z,23.42
2022-12-03T23:35:29.346Z,24.02
2022-12-03T23:37:55.800Z,21.60
2022-12-03T23:40:22.296Z,22.93
2022-12-03T23:42:48.807Z,23.73
2022-12-03T23:45:15.234Z,23.85
2022-12-03T23:47:41.689Z,25.27
2022-12-03T23:50:08.363Z,22.85
2022-12-03T23:52:38.100Z,23.27
2022-12-03T23:55:05.380Z,23.00
2022-12-03T23:57:32.035Z,25.30
2022-12-03T23:59:58.467Z,23.95
